Time;durP1;ratioP1;P1;durP2;ratioP2;P2;SDS_P1;SDS_P2;PMS_P1;PMS_P2;Temp;Humidity;BMP_temperature;BMP_pressure;BME280_temperature;BME280_humidity;BME280_pressure;Samples;Min_cycle;Max_cycle;Signal;HPM_P1;HPM_P2
2023/07/01 00:03:33;;;;;;;;;;;;;;;18.84;62.86;100689.06;13054261;22;19943;-62
2023/07/01 00:08:35;;;;;;;;;;;;;;;18.89;61.08;100681.50;13052557;22;19919;-62
2023/07/01 00:13:37;;;;;;;;;;;;;;;19.02;61.08;100677.69;13053168;22;19946;-63
2023/07/01 00:18:40;;;;;;;;;;;;;;;18.84;61.40;100670.47;13053336;22;19942;-63
2023/07/01 00:23:42;;;;;;;;;;;;;;;18.53;61.72;100644.19;13026250;22;19919;-62
2023/07/01 00:28:44;;;;;;;;;;;;;;;18.60;62.45;100649.75;13053168;22;19925;-62
2023/07/01 00:33:47;;;;;;;;;;;;;;;18.85;60.52;100634.22;13052512;22;20346;-61
2023/07/01 00:38:49;;;;;;;;;;;;;;;19.08;60.36;100627.53;13053065;22;19925;-62
2023/07/01 00:43:51;;;;;;;;;;;;;;;18.86;61.27;100618.16;13052339;22;19978;-62
2023/07/01 00:48:54;;;;;;;;;;;;;;;18.72;62.05;100605.31;13055618;22;19919;-61
2023/07/01 00:53:57;;;;;;;;;;;;;;;18.87;60.89;100600.41;13057268;22;19930;-62
2023/07/01 00:58:59;;;;;;;;;;;;;;;18.78;60.64;100590.63;13057171;22;19919;-62
2023/07/01 01:04:20;;;;;;;;;;;;;;;18.69;61.13;100581.75;13003734;22;19931;-62
2023/07/01 01:09:29;;;;;;;;;;;;;;;18.77;61.61;100584.50;13029933;22;19973;-62
2023/07/01 01:14:33;;;;;;;;;;;;;;;18.69;63.93;100587.03;13056063;22;19990;-61
2023/07/01 01:19:44;;;;;;;;;;;;;;;18.70;60.37;100573.66;13029356;22;19919;-61
2023/07/01 01:24:51;;;;;;;;;;;;;;;18.87;60.10;100560.63;13056650;22;19986;-62
2023/07/01 01:29:53;;;;;;;;;;;;;;;18.85;61.66;100568.72;13056465;22;19926;-62
2023/07/01 01:34:55;;;;;;;;;;;;;;;18.88;60.97;100554.34;13056428;22;19918;-62
2023/07/01 01:40:00;;;;;;;;;;;;;;;18.70;60.93;100544.47;13056013;22;19982;-62
2023/07/01 01:45:03;;;;;;;;;;;;;;;18.78;61.30;100546.41;13028266;22;20041;-62
2023/07/01 01:50:07;;;;;;;;;;;;;;;18.69;61.65;100540.19;13028499;22;19919;-62
2023/07/01 01:55:10;;;;;;;;;;;;;;;18.66;62.25;100524.56;13027003;22;19989;-67
2023/07/01 02:00:13;;;;;;;;;;;;;;;18.99;62.02;100513.50;13028782;22;19942;-66
2023/07/01 02:05:15;;;;;;;;;;;;;;;18.89;61.70;100503.78;13028108;22;19993;-66
2023/07/01 02:10:19;;;;;;;;;;;;;;;18.68;63.02;100500.53;13054772;22;20216;-67
2023/07/01 02:15:21;;;;;;;;;;;;;;;19.02;62.32;100494.63;13027854;22;19946;-67
2023/07/01 02:20:24;;;;;;;;;;;;;;;18.68;63.63;100488.13;13055559;22;20312;-67
2023/07/01 02:25:26;;;;;;;;;;;;;;;18.75;63.24;100491.84;13028318;22;19994;-67
2023/07/01 02:30:28;;;;;;;;;;;;;;;18.60;63.76;100485.38;13027202;22;20383;-67
2023/07/01 02:35:30;;;;;;;;;;;;;;;18.82;63.61;100480.63;13055204;22;19919;-67
2023/07/01 02:40:33;;;;;;;;;;;;;;;18.97;63.95;100476.50;13055145;22;19926;-66
2023/07/01 02:45:35;;;;;;;;;;;;;;;18.67;65.58;100467.88;13053996;22;19957;-67
2023/07/01 02:50:38;;;;;;;;;;;;;;;18.94;64.63;100472.31;13026949;22;19919;-67
2023/07/01 02:55:40;;;;;;;;;;;;;;;18.72;64.46;100470.09;13054236;22;19919;-67
2023/07/01 03:00:42;;;;;;;;;;;;;;;18.52;66.25;100464.88;13027645;22;19939;-67
2023/07/01 03:05:45;;;;;;;;;;;;;;;18.53;67.20;100450.66;13053866;22;19923;-67
2023/07/01 03:10:48;;;;;;;;;;;;;;;18.78;66.94;100442.13;13054050;22;19926;-67
2023/07/01 03:15:50;;;;;;;;;;;;;;;18.65;67.99;100453.13;13054289;22;19991;-66
2023/07/01 03:20:53;;;;;;;;;;;;;;;18.70;67.34;100448.19;13054288;22;19919;-68
2023/07/01 03:25:55;;;;;;;;;;;;;;;18.59;68.57;100443.91;13054107;22;19990;-67
2023/07/01 03:30:57;;;;;;;;;;;;;;;18.38;71.06;100434.41;13026970;22;19919;-66
2023/07/01 03:36:00;;;;;;;;;;;;;;;18.56;69.86;100426.50;13053145;22;19969;-66
2023/07/01 03:41:02;;;;;;;;;;;;;;;18.30;71.73;100431.66;13053160;22;19947;-67
2023/07/01 03:46:04;;;;;;;;;;;;;;;18.44;73.43;100425.06;13052886;22;19919;-67
2023/07/01 03:51:06;;;;;;;;;;;;;;;18.36;74.21;100417.81;13053685;22;19926;-66
2023/07/01 03:56:09;;;;;;;;;;;;;;;17.82;78.20;100412.31;13025479;22;19923;-66
2023/07/01 04:01:15;;;;;;;;;;;;;;;18.01;78.78;100415.91;13026499;22;19985;-66
2023/07/01 04:06:18;;;;;;;;;;;;;;;17.67;84.42;100416.41;13052824;22;20344;-67
2023/07/01 04:11:21;;;;;;;;;;;;;;;17.69;85.38;100410.97;13053230;22;19919;-67
2023/07/01 04:16:23;;;;;;;;;;;;;;;17.67;88.50;100411.13;13026350;22;19930;-67
2023/07/01 04:21:26;;;;;;;;;;;;;;;17.76;88.79;100396.19;13053251;22;19922;-67
2023/07/01 04:26:28;;;;;;;;;;;;;;;17.76;86.84;100390.88;13053201;22;19947;-67
2023/07/01 04:31:30;;;;;;;;;;;;;;;17.93;88.54;100386.66;13052968;22;19919;-67
2023/07/01 04:36:32;;;;;;;;;;;;;;;17.78;90.55;100387.09;13026092;22;19965;-67
2023/07/01 04:41:35;;;;;;;;;;;;;;;17.55;95.03;100383.13;13052367;22;19997;-67
2023/07/01 04:46:37;;;;;;;;;;;;;;;17.44;96.96;100379.69;13052253;22;20395;-67
2023/07/01 04:51:39;;;;;;;;;;;;;;;17.82;93.21;100379.72;13051939;22;19918;-67
2023/07/01 04:56:41;;;;;;;;;;;;;;;17.48;100.00;100374.09;13024966;22;20225;-66
2023/07/01 05:01:44;;;;;;;;;;;;;;;17.55;99.45;100369.91;13052124;22;19991;-66
2023/07/01 05:06:46;;;;;;;;;;;;;;;17.31;99.64;100371.19;13024945;22;19923;-68
2023/07/01 05:11:48;;;;;;;;;;;;;;;17.49;100.00;100373.13;13051918;22;20347;-68
2023/07/01 05:16:51;;;;;;;;;;;;;;;17.53;100.00;100367.38;13025769;22;19926;-68
2023/07/01 05:21:53;;;;;;;;;;;;;;;17.54;100.00;100362.94;13051835;22;20332;-68
2023/07/01 05:26:55;;;;;;;;;;;;;;;17.55;100.00;100364.59;13024750;22;19947;-68
2023/07/01 05:31:58;;;;;;;;;;;;;;;17.49;100.00;100363.38;13051843;22;19923;-68
2023/07/01 05:37:00;;;;;;;;;;;;;;;17.38;100.00;100366.19;13028447;22;19998;-68
2023/07/01 05:42:03;;;;;;;;;;;;;;;17.54;99.17;100355.84;13056406;22;19919;-67
2023/07/01 05:47:05;;;;;;;;;;;;;;;17.51;100.00;100356.13;13054644;22;19919;-67
2023/07/01 05:52:07;;;;;;;;;;;;;;;17.52;100.00;100359.63;13055303;22;19954;-68
2023/07/01 05:57:10;;;;;;;;;;;;;;;17.73;100.00;100356.75;13055622;22;19919;-67
2023/07/01 06:02:12;;;;;;;;;;;;;;;17.40;100.00;100353.63;13055915;22;19987;-67
2023/07/01 06:07:14;;;;;;;;;;;;;;;17.45;100.00;100349.59;13028701;22;19919;-67
2023/07/01 06:12:16;;;;;;;;;;;;;;;17.55;100.00;100343.44;13027785;22;19946;-67
2023/07/01 06:17:19;;;;;;;;;;;;;;;17.41;100.00;100334.97;13054845;22;20326;-67
2023/07/01 06:22:21;;;;;;;;;;;;;;;17.46;100.00;100345.13;13055543;22;19919;-68
2023/07/01 06:27:23;;;;;;;;;;;;;;;17.69;100.00;100335.03;13028366;22;19994;-69
2023/07/01 06:32:26;;;;;;;;;;;;;;;17.51;100.00;100352.66;13055271;22;19993;-68
2023/07/01 06:37:30;;;;;;;;;;;;;;;17.44;100.00;100342.63;13027712;22;20255;-67
2023/07/01 06:42:32;;;;;;;;;;;;;;;17.83;100.00;100331.06;13054291;22;19954;-67
2023/07/01 06:47:34;;;;;;;;;;;;;;;17.63;100.00;100332.94;13053611;22;20241;-68
2023/07/01 06:52:37;;;;;;;;;;;;;;;17.81;100.00;100335.69;13027564;22;19931;-67
2023/07/01 06:57:39;;;;;;;;;;;;;;;17.79;100.00;100337.63;13053756;22;20292;-67
2023/07/01 07:02:42;;;;;;;;;;;;;;;17.86;100.00;100335.25;13026738;22;20045;-68
2023/07/01 07:07:44;;;;;;;;;;;;;;;17.78;100.00;100320.91;13053832;22;19933;-68
2023/07/01 07:12:46;;;;;;;;;;;;;;;18.13;100.00;100322.00;13053580;22;20031;-68
2023/07/01 07:17:48;;;;;;;;;;;;;;;18.23;100.00;100321.13;13053557;22;20273;-67
2023/07/01 07:22:51;;;;;;;;;;;;;;;18.23;100.00;100318.47;13054263;22;19987;-68
2023/07/01 07:27:53;;;;;;;;;;;;;;;18.23;100.00;100316.66;13054139;22;19947;-68
2023/07/01 07:32:55;;;;;;;;;;;;;;;18.27;100.00;100319.84;13026161;22;20243;-68
2023/07/01 07:37:57;;;;;;;;;;;;;;;18.10;100.00;100314.34;13053862;22;19923;-68
2023/07/01 07:43:07;;;;;;;;;;;;;;;18.57;100.00;100319.47;13053250;22;20284;-67
2023/07/01 07:48:10;;;;;;;;;;;;;;;18.11;100.00;100315.22;13053093;22;19997;-68
2023/07/01 07:53:13;;;;;;;;;;;;;;;18.13;100.00;100323.84;13053530;22;19919;-67
2023/07/01 07:58:16;;;;;;;;;;;;;;;18.04;100.00;100322.06;13052474;22;19926;-68
2023/07/01 08:03:18;;;;;;;;;;;;;;;17.97;100.00;100309.44;13025641;22;19950;-67
2023/07/01 08:08:20;;;;;;;;;;;;;;;18.02;100.00;100314.25;13053429;22;19984;-66
2023/07/01 08:13:23;;;;;;;;;;;;;;;17.99;100.00;100315.41;13052484;22;19926;-65
2023/07/01 08:18:25;;;;;;;;;;;;;;;18.12;100.00;100301.81;13053357;22;19942;-65
2023/07/01 08:23:27;;;;;;;;;;;;;;;18.19;100.00;100302.88;13052540;22;20395;-65
2023/07/01 08:28:31;;;;;;;;;;;;;;;18.01;100.00;100307.31;13052415;22;19950;-65
2023/07/01 08:33:34;;;;;;;;;;;;;;;18.25;100.00;100309.38;13026153;22;19919;-66
2023/07/01 08:38:36;;;;;;;;;;;;;;;18.14;100.00;100302.50;13052317;22;20463;-66
2023/07/01 08:43:38;;;;;;;;;;;;;;;18.30;100.00;100307.13;13053140;22;19954;-66
2023/07/01 08:48:41;;;;;;;;;;;;;;;18.33;100.00;100290.91;13025960;22;19925;-67
2023/07/01 08:53:43;;;;;;;;;;;;;;;18.29;100.00;100308.13;12999681;22;19941;-67
2023/07/01 08:58:46;;;;;;;;;;;;;;;18.18;100.00;100297.72;13051928;22;20330;-68
2023/07/01 09:03:48;;;;;;;;;;;;;;;18.37;100.00;100294.09;13024969;22;20341;-67
2023/07/01 09:08:50;;;;;;;;;;;;;;;18.49;100.00;100297.34;13027366;22;19919;-68
2023/07/01 09:13:53;;;;;;;;;;;;;;;18.54;100.00;100295.06;13056626;22;19925;-67
2023/07/01 09:19:23;;;;;;;;;;;;;;;18.74;100.00;100290.44;13029642;22;19926;-68
2023/07/01 09:24:36;;;;;;;;;;;;;;;18.72;100.00;100289.78;13052036;22;20328;-67
2023/07/01 09:29:40;;;;;;;;;;;;;;;18.74;100.00;100288.66;13057048;22;19919;-66
2023/07/01 09:34:58;;;;;;;;;;;;;;;18.79;100.00;100279.38;13056639;22;20320;-66
2023/07/01 09:40:07;;;;;;;;;;;;;;;19.14;100.00;100283.81;13031291;22;19918;-66
2023/07/01 09:45:10;;;;;;;;;;;;;;;18.83;100.00;100273.66;13004053;22;20371;-66
2023/07/01 09:50:22;;;;;;;;;;;;;;;19.09;100.00;100273.66;13055287;22;20001;-66
2023/07/01 09:55:24;;;;;;;;;;;;;;;19.21;100.00;100278.69;13055181;22;19926;-65
2023/07/01 10:00:27;;;;;;;;;;;;;;;18.97;100.00;100260.81;13056370;22;19951;-66
2023/07/01 10:05:29;;;;;;;;;;;;;;;19.05;100.00;100263.53;13028500;22;19998;-66
2023/07/01 10:10:31;;;;;;;;;;;;;;;19.01;100.00;100268.28;13054820;22;19919;-66
2023/07/01 10:15:33;;;;;;;;;;;;;;;18.91;100.00;100260.47;12999864;22;20390;-66
2023/07/01 10:20:36;;;;;;;;;;;;;;;19.15;100.00;100266.91;13052696;22;19990;-66
2023/07/01 10:25:38;;;;;;;;;;;;;;;18.97;100.00;100260.81;13025426;22;19998;-65
2023/07/01 10:30:40;;;;;;;;;;;;;;;19.12;100.00;100262.72;13055275;22;19962;-67
2023/07/01 10:36:00;;;;;;;;;;;;;;;19.41;100.00;100258.06;13055226;22;19919;-66
2023/07/01 10:41:02;;;;;;;;;;;;;;;19.28;100.00;100258.50;13055195;22;19954;-64
2023/07/01 10:46:21;;;;;;;;;;;;;;;19.25;100.00;100254.34;13056276;22;19972;-65
2023/07/01 10:51:23;;;;;;;;;;;;;;;19.66;100.00;100248.38;13055317;22;19919;-65
2023/07/01 10:56:27;;;;;;;;;;;;;;;19.49;100.00;100253.63;13055691;22;19922;-65
2023/07/01 11:01:42;;;;;;;;;;;;;;;19.78;100.00;100255.09;13028299;22;20320;-65
2023/07/01 11:06:54;;;;;;;;;;;;;;;19.79;100.00;100248.81;13055266;22;19919;-65
2023/07/01 11:11:56;;;;;;;;;;;;;;;19.98;100.00;100246.84;13054128;22;20320;-65
2023/07/01 11:17:12;;;;;;;;;;;;;;;20.32;100.00;100233.44;13027331;22;19918;-65
2023/07/01 11:22:15;;;;;;;;;;;;;;;20.04;100.00;100241.72;13053874;22;19972;-65
2023/07/01 11:27:17;;;;;;;;;;;;;;;20.04;100.00;100235.59;13026881;22;19945;-65
2023/07/01 11:32:20;;;;;;;;;;;;;;;20.53;100.00;100224.16;13027993;22;19990;-65
2023/07/01 11:37:23;;;;;;;;;;;;;;;20.94;100.00;100222.28;13055682;22;19918;-69
2023/07/01 11:42:26;;;;;;;;;;;;;;;20.89;100.00;100219.31;13027505;22;20328;-68
2023/07/01 11:47:28;;;;;;;;;;;;;;;20.77;100.00;100228.66;13028602;22;19919;-69
2023/07/01 11:52:30;;;;;;;;;;;;;;;20.92;100.00;100224.28;13054699;22;20316;-69
2023/07/01 11:57:33;;;;;;;;;;;;;;;20.59;100.00;100226.97;13026677;22;19918;-65
2023/07/01 12:02:35;;;;;;;;;;;;;;;20.77;100.00;100225.97;13053597;22;19919;-66
2023/07/01 12:07:52;;;;;;;;;;;;;;;20.76;100.00;100226.97;13054268;22;19926;-66
2023/07/01 12:12:55;;;;;;;;;;;;;;;21.55;100.00;100223.63;13026392;22;20002;-66
2023/07/01 12:18:16;;;;;;;;;;;;;;;21.50;100.00;100217.00;13052593;22;20303;-66
2023/07/01 12:23:18;;;;;;;;;;;;;;;21.73;100.00;100220.72;13052545;22;20006;-66
2023/07/01 12:28:20;;;;;;;;;;;;;;;21.11;100.00;100227.56;13025371;22;19919;-66
2023/07/01 12:33:23;;;;;;;;;;;;;;;21.03;100.00;100239.09;13053184;22;19919;-67
2023/07/01 12:38:25;;;;;;;;;;;;;;;20.59;100.00;100239.44;13052321;22;20326;-68
2023/07/01 12:43:27;;;;;;;;;;;;;;;21.25;100.00;100239.34;13054734;22;19954;-68
2023/07/01 12:48:30;;;;;;;;;;;;;;;21.59;100.00;100243.59;13029697;22;20243;-68
2023/07/01 12:53:32;;;;;;;;;;;;;;;21.05;100.00;100238.91;13030239;22;19918;-68
2023/07/01 12:58:36;;;;;;;;;;;;;;;20.61;100.00;100248.09;13056299;22;19989;-68
2023/07/01 13:03:38;;;;;;;;;;;;;;;20.01;100.00;100250.00;13030151;22;19949;-69
2023/07/01 13:08:41;;;;;;;;;;;;;;;19.76;100.00;100267.72;13030584;22;19986;-68
2023/07/01 13:13:43;;;;;;;;;;;;;;;19.93;100.00;100255.31;13056797;22;19926;-67
2023/07/01 13:18:45;;;;;;;;;;;;;;;20.28;100.00;100258.69;13056122;22;20323;-67
2023/07/01 13:23:47;;;;;;;;;;;;;;;19.99;100.00;100264.47;13056077;22;20319;-67
2023/07/01 13:28:49;;;;;;;;;;;;;;;20.25;100.00;100263.53;13056509;22;19919;-67
2023/07/01 13:34:10;;;;;;;;;;;;;;;20.64;100.00;100262.91;13056556;22;19997;-68
2023/07/01 13:39:13;;;;;;;;;;;;;;;20.89;100.00;100264.53;13056627;22;19950;-67
2023/07/01 13:44:25;;;;;;;;;;;;;;;21.07;100.00;100267.00;13029004;22;19919;-68
2023/07/01 13:49:28;;;;;;;;;;;;;;;21.56;100.00;100270.56;13030595;22;19990;-67
2023/07/01 13:54:30;;;;;;;;;;;;;;;20.89;100.00;100275.19;13054903;22;19990;-68
2023/07/01 13:59:32;;;;;;;;;;;;;;;21.34;100.00;100281.75;13055222;22;19990;-68
2023/07/01 14:04:36;;;;;;;;;;;;;;;20.42;100.00;100274.00;13028138;22;19989;-68
2023/07/01 14:14:49;;;;;;;;;;;;;;;20.34;100.00;100297.94;12865752;23;19927;-64
2023/07/01 14:19:53;;;;;;;;;;;;;;;19.83;100.00;100315.72;12865538;23;19982;-64
2023/07/01 14:24:55;;;;;;;;;;;;;;;19.52;100.00;100325.97;12864544;23;20312;-63
2023/07/01 14:29:58;;;;;;;;;;;;;;;19.94;100.00;100318.09;12864413;23;19991;-63
2023/07/01 14:35:00;;;;;;;;;;;;;;;19.80;100.00;100330.16;12865143;23;19987;-63
2023/07/01 14:40:03;;;;;;;;;;;;;;;19.74;100.00;100324.63;12838742;23;19927;-64
2023/07/01 14:45:05;;;;;;;;;;;;;;;19.57;100.00;100332.50;12837985;23;20000;-64
2023/07/01 14:50:08;;;;;;;;;;;;;;;19.44;100.00;100321.47;12864757;23;20014;-63
2023/07/01 14:55:10;;;;;;;;;;;;;;;19.52;100.00;100328.63;12863982;23;19959;-64
2023/07/01 15:00:12;;;;;;;;;;;;;;;19.49;100.00;100340.41;12864626;23;19931;-63
2023/07/01 15:05:15;;;;;;;;;;;;;;;20.80;100.00;100318.75;12837697;23;19926;-64
2023/07/01 15:10:17;;;;;;;;;;;;;;;21.77;100.00;100325.91;12870558;23;19951;-63
2023/07/01 15:15:19;;;;;;;;;;;;;;;22.01;100.00;100327.66;12900147;23;20397;-63
2023/07/01 15:20:21;;;;;;;;;;;;;;;21.25;100.00;100333.38;12900456;23;19939;-63
2023/07/01 15:25:26;;;;;;;;;;;;;;;20.77;100.00;100329.72;12900759;23;19920;-63
2023/07/01 15:30:28;;;;;;;;;;;;;;;21.15;100.00;100333.53;12926774;23;19926;-64
2023/07/01 15:35:30;;;;;;;;;;;;;;;21.47;100.00;100329.19;12925948;23;20337;-65
2023/07/01 15:40:40;;;;;;;;;;;;;;;20.60;100.00;100347.47;10577070;27;19912;-62
2023/07/01 15:45:43;;;;;;;;;;;;;;;20.14;100.00;100345.22;10576881;28;20375;-64
2023/07/01 15:50:45;;;;;;;;;;;;;;;20.55;100.00;100355.13;10576581;28;19924;-65
2023/07/01 15:55:48;;;;;;;;;;;;;;;20.71;100.00;100349.84;10576275;28;20287;-64
2023/07/01 16:00:54;;;;;;;;;;;;;;;20.69;100.00;100356.31;10575033;28;19924;-64
2023/07/01 16:05:57;;;;;;;;;;;;;;;20.68;100.00;100351.97;10575014;28;20010;-64
2023/07/01 16:10:59;;;;;;;;;;;;;;;20.40;100.00;100354.91;10574551;28;19931;-64
2023/07/01 16:16:03;;;;;;;;;;;;;;;20.52;100.00;100363.41;10575749;28;19924;-64
2023/07/01 16:21:06;;;;;;;;;;;;;;;19.90;100.00;100377.00;10575410;28;19931;-64
2023/07/01 16:26:08;;;;;;;;;;;;;;;19.37;100.00;100381.50;10575132;28;19931;-64
2023/07/01 16:31:24;;;;;;;;;;;;;;;19.36;100.00;100388.59;10573833;28;20287;-64
2023/07/01 16:36:26;;;;;;;;;;;;;;;19.80;100.00;100385.94;10574529;28;19924;-64
2023/07/01 16:41:30;;;;;;;;;;;;;;;19.88;100.00;100392.28;10574535;28;20389;-64
2023/07/01 16:46:36;;;;;;;;;;;;;;;20.25;100.00;100388.44;10573312;28;20015;-64
2023/07/01 16:51:39;;;;;;;;;;;;;;;19.94;100.00;100396.94;10547020;28;20374;-64
2023/07/01 16:56:56;;;;;;;;;;;;;;;20.03;100.00;100401.31;10545788;28;20403;-64
2023/07/01 17:01:58;;;;;;;;;;;;;;;19.97;100.00;100401.94;10544484;28;20405;-64
2023/07/01 17:07:01;;;;;;;;;;;;;;;19.54;100.00;100401.84;10545402;28;19949;-64
2023/07/01 17:12:04;;;;;;;;;;;;;;;19.89;100.00;100410.72;10545508;28;19924;-64
2023/07/01 17:17:08;;;;;;;;;;;;;;;19.42;100.00;100397.78;10544937;28;20371;-64
2023/07/01 17:22:10;;;;;;;;;;;;;;;19.44;100.00;100409.91;10543760;28;20333;-64
2023/07/01 17:27:12;;;;;;;;;;;;;;;19.97;100.00;100405.44;10544902;28;20015;-64
2023/07/01 17:32:15;;;;;;;;;;;;;;;19.86;100.00;100411.03;10543225;28;19924;-64
2023/07/01 17:37:17;;;;;;;;;;;;;;;19.95;98.13;100420.69;10543241;28;20018;-64
2023/07/01 17:42:19;;;;;;;;;;;;;;;19.64;99.21;100418.50;10544203;28;19931;-64
2023/07/01 17:47:22;;;;;;;;;;;;;;;19.46;98.74;100423.84;10543760;28;20367;-64
2023/07/01 17:52:24;;;;;;;;;;;;;;;19.14;100.00;100427.09;10542547;28;20023;-62
2023/07/01 17:57:26;;;;;;;;;;;;;;;19.44;99.30;100431.13;10543416;28;20023;-60
2023/07/01 18:02:28;;;;;;;;;;;;;;;19.52;96.85;100440.16;10542472;28;19930;-62
2023/07/01 18:07:31;;;;;;;;;;;;;;;19.58;98.94;100442.19;10543148;28;19931;-62
2023/07/01 18:12:36;;;;;;;;;;;;;;;19.75;96.98;100443.16;10542815;28;19930;-63
2023/07/01 18:17:38;;;;;;;;;;;;;;;19.73;98.18;100432.66;10542688;28;19924;-63
2023/07/01 18:22:40;;;;;;;;;;;;;;;19.56;96.22;100433.56;10542495;28;19932;-63
2023/07/01 18:27:42;;;;;;;;;;;;;;;19.38;98.66;100442.38;10542408;28;19930;-62
2023/07/01 18:32:44;;;;;;;;;;;;;;;19.14;100.00;100443.00;10542103;28;19930;-62
2023/07/01 18:37:47;;;;;;;;;;;;;;;19.51;98.11;100439.31;10541443;28;20358;-62
2023/07/01 18:42:49;;;;;;;;;;;;;;;19.43;100.00;100439.25;10541852;28;19963;-62
2023/07/01 18:47:51;;;;;;;;;;;;;;;18.98;100.00;100446.34;10541454;28;19931;-62
2023/07/01 18:52:54;;;;;;;;;;;;;;;19.20;100.00;100447.72;10541491;28;20015;-62
2023/07/01 18:57:56;;;;;;;;;;;;;;;18.81;100.00;100458.59;10541255;28;19924;-62
2023/07/01 19:02:58;;;;;;;;;;;;;;;19.01;100.00;100464.59;10540962;28;20367;-62
2023/07/01 19:08:01;;;;;;;;;;;;;;;19.17;100.00;100463.09;10539659;28;19931;-62
2023/07/01 19:13:03;;;;;;;;;;;;;;;19.30;100.00;100467.03;10540612;28;19924;-62
2023/07/01 19:18:05;;;;;;;;;;;;;;;19.17;100.00;100473.72;10539262;28;19924;-62
2023/07/01 19:23:08;;;;;;;;;;;;;;;18.93;100.00;100475.97;10540372;28;20404;-62
2023/07/01 19:28:11;;;;;;;;;;;;;;;18.93;100.00;100483.13;10540217;28;20409;-62
2023/07/01 19:33:18;;;;;;;;;;;;;;;18.70;100.00;100487.97;10540036;28;19924;-62
2023/07/01 19:38:20;;;;;;;;;;;;;;;18.60;100.00;100505.75;10538686;28;19924;-63
2023/07/01 19:43:23;;;;;;;;;;;;;;;18.86;100.00;100506.75;10538993;28;19924;-67
2023/07/01 19:48:25;;;;;;;;;;;;;;;18.75;99.93;100517.53;10539901;28;20032;-67
2023/07/01 19:53:27;;;;;;;;;;;;;;;18.61;100.00;100520.66;10539826;28;19928;-63
2023/07/01 19:58:29;;;;;;;;;;;;;;;18.65;98.25;100533.47;10538412;28;19924;-62
2023/07/01 20:03:31;;;;;;;;;;;;;;;18.53;97.88;100543.44;10539744;28;19924;-63
2023/07/01 20:08:34;;;;;;;;;;;;;;;18.44;98.30;100549.63;10539492;28;19960;-62
2023/07/01 20:13:37;;;;;;;;;;;;;;;18.55;100.00;100554.72;10539645;28;19924;-62
2023/07/01 20:18:40;;;;;;;;;;;;;;;18.61;99.57;100557.78;10539332;28;19924;-63
2023/07/01 20:23:42;;;;;;;;;;;;;;;18.56;99.64;100561.72;10540996;28;19924;-63
2023/07/01 20:28:44;;;;;;;;;;;;;;;18.52;100.00;100559.50;10547121;28;19931;-63
2023/07/01 20:33:46;;;;;;;;;;;;;;;18.51;99.35;100558.66;10546869;28;19928;-63
2023/07/01 20:38:49;;;;;;;;;;;;;;;18.27;97.61;100567.09;10546538;28;19924;-63
2023/07/01 20:43:51;;;;;;;;;;;;;;;18.26;97.92;100576.03;10546382;28;19923;-63
2023/07/01 20:48:53;;;;;;;;;;;;;;;18.27;100.00;100577.69;10546216;28;19928;-63
2023/07/01 20:53:55;;;;;;;;;;;;;;;18.14;98.89;100585.97;10546002;28;19924;-63
2023/07/01 20:58:57;;;;;;;;;;;;;;;18.24;96.97;100588.59;10544487;28;19931;-63
2023/07/01 21:04:00;;;;;;;;;;;;;;;18.24;99.14;100590.41;10545859;28;19931;-63
2023/07/01 21:09:10;;;;;;;;;;;;;;;18.11;96.67;100596.84;10545335;28;19993;-63
2023/07/01 21:14:13;;;;;;;;;;;;;;;18.10;95.24;100603.09;10545460;28;19924;-63
2023/07/01 21:19:15;;;;;;;;;;;;;;;18.22;91.02;100597.66;10543959;28;19948;-63
2023/07/01 21:24:18;;;;;;;;;;;;;;;18.20;94.65;100589.84;10543565;28;19940;-63
2023/07/01 21:29:20;;;;;;;;;;;;;;;18.27;93.58;100596.25;10544829;28;19924;-63
2023/07/01 21:34:22;;;;;;;;;;;;;;;18.08;97.76;100598.94;10544211;28;20355;-63
2023/07/01 21:39:25;;;;;;;;;;;;;;;18.00;97.42;100604.94;10543996;28;19978;-63
2023/07/01 21:44:27;;;;;;;;;;;;;;;18.12;96.54;100609.13;10544200;28;20022;-63
2023/07/01 21:49:30;;;;;;;;;;;;;;;18.00;100.00;100608.44;10544120;28;19924;-63
2023/07/01 21:54:32;;;;;;;;;;;;;;;17.86;100.00;100608.81;10543541;28;20355;-63
2023/07/01 21:59:34;;;;;;;;;;;;;;;18.20;92.10;100603.09;10542286;28;19928;-63
2023/07/01 22:04:36;;;;;;;;;;;;;;;18.03;94.26;100606.47;10542037;28;19947;-62
2023/07/01 22:09:39;;;;;;;;;;;;;;;18.20;94.14;100606.56;10543045;28;20336;-63
2023/07/01 22:14:41;;;;;;;;;;;;;;;18.00;97.11;100602.28;10543097;28;19930;-63
2023/07/01 22:19:43;;;;;;;;;;;;;;;18.20;92.65;100603.09;10542641;28;19924;-63
2023/07/01 22:24:46;;;;;;;;;;;;;;;18.17;93.92;100598.06;10542347;28;19930;-63
2023/07/01 22:29:48;;;;;;;;;;;;;;;18.18;93.35;100605.06;10542335;28;19935;-63
2023/07/01 22:34:50;;;;;;;;;;;;;;;18.33;90.24;100598.31;10542261;28;19950;-63
2023/07/01 22:39:53;;;;;;;;;;;;;;;18.03;90.60;100595.88;10541502;28;20402;-63
2023/07/01 22:44:55;;;;;;;;;;;;;;;17.95;93.43;100601.88;10541620;28;19924;-63
2023/07/01 22:50:08;;;;;;;;;;;;;;;17.97;92.53;100597.28;10541434;28;19924;-63
2023/07/01 22:55:10;;;;;;;;;;;;;;;18.08;90.28;100599.78;10541298;28;19930;-63
2023/07/01 23:00:13;;;;;;;;;;;;;;;18.12;91.13;100590.59;10540921;28;19924;-63
2023/07/01 23:05:15;;;;;;;;;;;;;;;18.09;95.90;100595.31;10541187;28;19930;-63
2023/07/01 23:10:17;;;;;;;;;;;;;;;17.93;97.34;100593.25;10540662;28;20018;-63
2023/07/01 23:15:19;;;;;;;;;;;;;;;18.01;94.91;100593.38;10539611;28;19931;-63
2023/07/01 23:20:24;;;;;;;;;;;;;;;17.92;95.86;100595.06;10540509;28;19924;-63
2023/07/01 23:25:29;;;;;;;;;;;;;;;18.09;95.33;100582.06;10540421;28;19924;-63
2023/07/01 23:30:33;;;;;;;;;;;;;;;18.15;94.78;100573.53;10540406;28;19950;-63
2023/07/01 23:35:35;;;;;;;;;;;;;;;17.86;98.55;100553.22;10540174;28;19970;-63
2023/07/01 23:40:37;;;;;;;;;;;;;;;17.96;96.39;100582.38;10539752;28;19924;-63
2023/07/01 23:45:40;;;;;;;;;;;;;;;17.80;100.00;100581.09;10539942;28;20391;-63
2023/07/01 23:50:42;;;;;;;;;;;;;;;17.75;98.81;100578.03;10539976;28;19930;-63
2023/07/01 23:55:44;;;;;;;;;;;;;;;17.88;97.70;100583.06;10539855;28;19925;-63
